createdAt,value
2023-05-09T00:01:31.556Z,13.80
2023-05-09T00:03:59.831Z,13.80
2023-05-09T00:06:27.888Z,13.80
2023-05-09T00:08:55.895Z,13.80
2023-05-09T00:11:23.618Z,13.80
2023-05-09T00:13:50.949Z,13.70
2023-05-09T00:16:18.773Z,13.80
2023-05-09T00:18:45.975Z,13.90
2023-05-09T00:21:13.246Z,13.90
2023-05-09T00:23:40.341Z,13.90
2023-05-09T00:26:07.448Z,13.90
2023-05-09T00:28:35.490Z,13.90
2023-05-09T00:31:04.266Z,14.00
2023-05-09T00:33:31.334Z,13.90
2023-05-09T00:35:58.495Z,14.00
2023-05-09T00:38:25.793Z,14.00
2023-05-09T00:40:52.924Z,14.10
2023-05-09T00:43:20.011Z,14.00
2023-05-09T00:45:47.679Z,13.90
2023-05-09T00:48:16.653Z,13.70
2023-05-09T00:50:44.147Z,13.70
2023-05-09T00:53:11.723Z,13.60
2023-05-09T00:55:38.837Z,13.60
2023-05-09T00:58:06.371Z,13.60
2023-05-09T01:00:33.728Z,13.70
2023-05-09T01:03:01.888Z,13.70
2023-05-09T01:05:52.093Z,13.70
2023-05-09T01:08:43.412Z,13.70
2023-05-09T01:11:35.341Z,13.70
2023-05-09T01:14:33.692Z,13.70
2023-05-09T01:17:16.212Z,13.70
2023-05-09T01:20:02.624Z,13.70
2023-05-09T01:22:37.816Z,13.70
2023-05-09T01:25:46.637Z,13.60
2023-05-09T01:28:34.383Z,13.60
2023-05-09T01:31:02.669Z,13.60
2023-05-09T01:33:33.939Z,13.50
2023-05-09T01:36:07.159Z,13.50
2023-05-09T01:38:37.762Z,13.50
2023-05-09T01:41:09.442Z,13.50
2023-05-09T01:43:38.432Z,13.50
2023-05-09T01:46:10.228Z,13.50
2023-05-09T01:48:39.178Z,13.60
2023-05-09T01:51:08.428Z,13.60
2023-05-09T01:53:36.404Z,13.60
2023-05-09T01:56:04.798Z,13.50
2023-05-09T01:58:33.723Z,13.50
2023-05-09T02:01:01.409Z,13.40
2023-05-09T02:03:29.105Z,13.40
2023-05-09T02:05:57.608Z,13.30
2023-05-09T02:08:25.336Z,13.40
2023-05-09T02:10:53.702Z,13.40
2023-05-09T02:13:21.123Z,13.30
2023-05-09T02:15:48.599Z,13.40
2023-05-09T02:18:17.427Z,13.40
2023-05-09T02:20:44.532Z,13.40
2023-05-09T02:23:12.127Z,13.40
2023-05-09T02:25:41.198Z,13.30
2023-05-09T02:28:10.069Z,13.30
2023-05-09T02:30:44.413Z,13.20
2023-05-09T02:33:13.769Z,13.10
2023-05-09T02:35:44.320Z,13.10
2023-05-09T02:38:13.843Z,13.10
2023-05-09T02:40:43.796Z,12.90
2023-05-09T02:43:11.093Z,12.90
2023-05-09T02:45:38.277Z,13.00
2023-05-09T02:48:08.573Z,13.00
2023-05-09T02:50:38.399Z,13.00
2023-05-09T02:53:06.452Z,13.00
2023-05-09T02:55:33.670Z,13.00
2023-05-09T02:58:12.642Z,13.00
2023-05-09T03:00:42.747Z,12.90
2023-05-09T03:03:10.215Z,12.90
2023-05-09T03:05:37.525Z,12.90
2023-05-09T03:08:05.211Z,12.80
2023-05-09T03:10:34.548Z,12.70
2023-05-09T03:13:01.912Z,12.80
2023-05-09T03:15:29.035Z,12.80
2023-05-09T03:17:58.089Z,12.90
2023-05-09T03:20:27.074Z,12.90
2023-05-09T03:22:54.373Z,12.80
2023-05-09T03:25:22.525Z,12.90
2023-05-09T03:27:49.668Z,12.80
2023-05-09T03:30:17.325Z,12.80
2023-05-09T03:32:47.037Z,12.80
2023-05-09T03:35:14.598Z,12.70
2023-05-09T03:37:41.979Z,12.70
2023-05-09T03:40:10.503Z,12.70
2023-05-09T03:42:45.461Z,12.70
2023-05-09T03:45:12.944Z,12.80
2023-05-09T03:47:40.803Z,12.80
2023-05-09T03:50:08.903Z,12.80
2023-05-09T03:52:37.402Z,12.70
2023-05-09T03:55:05.994Z,12.80
2023-05-09T03:57:35.917Z,12.80
2023-05-09T04:00:06.059Z,12.90
2023-05-09T04:02:41.569Z,12.80
2023-05-09T04:05:13.369Z,12.80
2023-05-09T04:07:41.407Z,12.90
2023-05-09T04:10:09.694Z,12.90
2023-05-09T04:12:37.042Z,12.90
2023-05-09T04:15:06.482Z,12.80
2023-05-09T04:17:34.713Z,12.70
2023-05-09T04:20:02.164Z,12.80
2023-05-09T04:22:29.476Z,12.80
2023-05-09T04:24:57.398Z,12.90
2023-05-09T04:27:24.910Z,12.90
2023-05-09T04:29:53.920Z,13.00
2023-05-09T04:32:22.880Z,12.90
2023-05-09T04:34:50.422Z,12.90
2023-05-09T04:37:22.112Z,12.80
2023-05-09T04:39:49.292Z,12.80
2023-05-09T04:42:25.830Z,12.80
2023-05-09T04:44:53.467Z,13.00
2023-05-09T04:47:22.255Z,13.10
2023-05-09T04:49:49.491Z,13.10
2023-05-09T04:52:16.895Z,13.20
2023-05-09T04:54:44.385Z,13.30
2023-05-09T04:57:17.736Z,13.20
2023-05-09T04:59:49.828Z,13.20
2023-05-09T05:02:17.131Z,13.10
2023-05-09T05:04:45.063Z,13.20
2023-05-09T05:07:12.430Z,13.20
2023-05-09T05:09:39.919Z,13.30
2023-05-09T05:12:09.752Z,13.40
2023-05-09T05:14:38.348Z,13.30
2023-05-09T05:17:08.514Z,13.30
2023-05-09T05:19:35.821Z,13.30
2023-05-09T05:22:04.854Z,13.10
2023-05-09T05:24:33.080Z,13.20
2023-05-09T05:27:00.320Z,13.40
2023-05-09T05:29:27.822Z,13.40
2023-05-09T05:31:55.595Z,13.50
2023-05-09T05:34:22.923Z,13.50
2023-05-09T05:36:51.266Z,13.50
2023-05-09T05:39:18.432Z,13.60
2023-05-09T05:41:45.653Z,13.50
2023-05-09T05:44:12.900Z,13.60
2023-05-09T05:46:40.579Z,13.70
2023-05-09T05:49:07.909Z,13.70
2023-05-09T05:51:35.255Z,13.60
2023-05-09T05:54:03.953Z,13.50
2023-05-09T05:56:31.129Z,13.50
2023-05-09T05:58:58.445Z,13.60
2023-05-09T06:01:25.784Z,13.70
2023-05-09T06:03:55.959Z,13.70
2023-05-09T06:06:27.432Z,13.80
2023-05-09T06:08:55.743Z,13.70
2023-05-09T06:11:23.856Z,13.80
2023-05-09T06:13:50.929Z,13.80
2023-05-09T06:16:19.896Z,13.90
2023-05-09T06:18:50.153Z,13.90
2023-05-09T06:21:17.221Z,14.00
2023-05-09T06:24:01.440Z,14.10
2023-05-09T06:26:32.951Z,14.10
2023-05-09T06:29:00.034Z,14.30
2023-05-09T06:31:27.126Z,14.40
2023-05-09T06:33:54.340Z,14.50
2023-05-09T06:36:21.730Z,14.70
2023-05-09T06:38:48.793Z,14.60
2023-05-09T06:41:15.885Z,14.40
2023-05-09T06:43:42.922Z,14.30
2023-05-09T06:46:10.181Z,14.40
2023-05-09T06:48:37.353Z,14.50
2023-05-09T06:51:04.500Z,14.50
2023-05-09T06:53:31.605Z,14.30
2023-05-09T06:55:59.148Z,14.40
2023-05-09T06:58:27.567Z,14.50
2023-05-09T07:00:54.890Z,14.60
2023-05-09T07:03:22.107Z,14.60
2023-05-09T07:05:49.190Z,14.80
2023-05-09T07:08:16.260Z,14.80
2023-05-09T07:10:43.548Z,15.00
2023-05-09T07:13:10.587Z,14.70
2023-05-09T07:15:42.021Z,14.50
2023-05-09T07:18:10.177Z,14.60
2023-05-09T07:20:37.374Z,14.90
2023-05-09T07:23:06.150Z,14.70
2023-05-09T07:25:33.368Z,14.80
2023-05-09T07:28:01.179Z,14.60
2023-05-09T07:30:28.327Z,14.50
2023-05-09T07:32:55.720Z,14.70
2023-05-09T07:35:23.257Z,14.90
2023-05-09T07:37:50.899Z,15.20
2023-05-09T07:40:18.253Z,15.20
2023-05-09T07:42:49.931Z,15.20
2023-05-09T07:45:18.717Z,15.20
2023-05-09T07:47:46.521Z,15.30
2023-05-09T07:50:13.839Z,15.20
2023-05-09T07:52:40.917Z,15.40
2023-05-09T07:55:08.487Z,15.50
2023-05-09T07:57:35.765Z,15.40
2023-05-09T08:00:03.655Z,15.40
2023-05-09T08:02:40.812Z,15.60
2023-05-09T08:05:11.603Z,15.50
2023-05-09T08:07:39.374Z,15.80
2023-05-09T08:10:07.487Z,16.50
2023-05-09T08:12:34.755Z,16.90
2023-05-09T08:15:01.926Z,17.00
2023-05-09T08:17:29.296Z,16.90
2023-05-09T08:19:56.431Z,17.40
2023-05-09T08:22:24.756Z,18.00
2023-05-09T08:24:51.766Z,18.00
2023-05-09T08:27:18.831Z,17.70
2023-05-09T08:29:45.923Z,17.50
2023-05-09T08:32:13.019Z,17.20
2023-05-09T08:34:40.283Z,17.20
2023-05-09T08:37:07.761Z,17.40
2023-05-09T08:39:35.389Z,17.10
2023-05-09T08:42:02.958Z,17.70
2023-05-09T08:44:31.632Z,18.20
2023-05-09T08:47:03.877Z,18.10
2023-05-09T08:49:31.455Z,18.20
2023-05-09T08:51:59.247Z,18.80
2023-05-09T08:54:26.992Z,18.20
2023-05-09T08:56:54.242Z,17.70
2023-05-09T08:59:22.164Z,17.80
2023-05-09T09:01:49.208Z,17.70
2023-05-09T09:04:16.419Z,18.10
2023-05-09T09:06:43.836Z,18.20
2023-05-09T09:09:13.114Z,18.60
2023-05-09T09:11:41.115Z,17.80
2023-05-09T09:14:23.993Z,18.10
2023-05-09T09:16:53.138Z,18.30
2023-05-09T09:19:22.516Z,18.70
2023-05-09T09:21:55.059Z,18.50
2023-05-09T09:24:24.852Z,18.90
2023-05-09T09:26:52.232Z,19.00
2023-05-09T09:29:21.047Z,18.50
2023-05-09T09:31:52.322Z,18.60
2023-05-09T09:34:22.026Z,19.50
2023-05-09T09:36:49.671Z,20.00
2023-05-09T09:39:16.825Z,20.30
2023-05-09T09:41:45.123Z,20.50
2023-05-09T09:44:17.273Z,20.30
2023-05-09T09:46:52.118Z,19.90
2023-05-09T09:49:21.277Z,19.90
2023-05-09T09:51:56.778Z,19.80
2023-05-09T09:54:27.396Z,19.80
2023-05-09T09:56:55.209Z,20.40
2023-05-09T09:59:26.934Z,20.70
2023-05-09T10:02:08.252Z,20.90
2023-05-09T10:04:41.989Z,20.70
2023-05-09T10:07:13.789Z,19.80
2023-05-09T10:09:43.916Z,19.80
2023-05-09T10:12:12.054Z,20.40
2023-05-09T10:14:42.469Z,21.20
2023-05-09T10:17:14.054Z,21.40
2023-05-09T10:19:46.553Z,21.40
2023-05-09T10:22:16.659Z,20.80
2023-05-09T10:24:51.197Z,20.10
2023-05-09T10:27:22.397Z,20.40
2023-05-09T10:30:03.077Z,20.30
2023-05-09T10:32:43.525Z,20.70
2023-05-09T10:35:13.945Z,21.70
2023-05-09T10:37:42.222Z,22.20
2023-05-09T10:40:14.098Z,22.10
2023-05-09T10:42:45.092Z,21.80
2023-05-09T10:45:13.524Z,21.30
2023-05-09T10:47:42.728Z,22.00
2023-05-09T10:50:13.135Z,22.50
2023-05-09T10:53:08.966Z,22.50
2023-05-09T10:56:09.749Z,22.40
2023-05-09T10:58:39.115Z,22.40
2023-05-09T11:01:06.517Z,21.70
2023-05-09T11:03:53.414Z,22.20
2023-05-09T11:06:57.841Z,22.20
2023-05-09T11:09:38.245Z,22.90
2023-05-09T11:12:15.546Z,23.00
2023-05-09T11:14:45.459Z,23.00
2023-05-09T11:17:34.565Z,23.00
2023-05-09T11:20:05.856Z,23.10
2023-05-09T11:22:44.133Z,22.80
2023-05-09T11:25:14.049Z,22.70
2023-05-09T11:27:45.852Z,21.50
2023-05-09T11:30:18.528Z,21.90
2023-05-09T11:32:56.149Z,22.40
2023-05-09T11:35:24.222Z,23.40
2023-05-09T11:38:09.609Z,23.50
2023-05-09T11:40:37.474Z,23.10
2023-05-09T11:43:04.497Z,22.50
2023-05-09T11:45:33.642Z,22.00
2023-05-09T11:48:01.417Z,22.80
2023-05-09T11:50:28.900Z,22.90
2023-05-09T11:52:56.065Z,22.90
2023-05-09T11:55:23.375Z,23.00
2023-05-09T11:57:54.736Z,22.90
2023-05-09T12:00:24.120Z,22.90
2023-05-09T12:02:52.731Z,23.00
2023-05-09T12:05:21.398Z,22.70
2023-05-09T12:07:48.946Z,21.60
2023-05-09T12:10:20.169Z,21.70
2023-05-09T12:12:49.404Z,22.40
2023-05-09T12:15:17.691Z,23.10
2023-05-09T12:17:48.124Z,23.20
2023-05-09T12:20:16.906Z,22.50
2023-05-09T12:22:44.634Z,22.80
2023-05-09T12:25:12.484Z,23.20
2023-05-09T12:27:40.873Z,23.90
2023-05-09T12:30:10.899Z,23.20
2023-05-09T12:32:39.640Z,22.30
2023-05-09T12:35:10.956Z,23.00
2023-05-09T12:37:38.930Z,23.60
2023-05-09T12:40:11.473Z,23.90
2023-05-09T12:42:39.826Z,24.70
2023-05-09T12:45:09.749Z,24.10
2023-05-09T12:47:39.095Z,22.70
2023-05-09T12:50:07.656Z,22.50
2023-05-09T12:52:47.001Z,22.40
2023-05-09T12:55:21.645Z,22.00
2023-05-09T12:58:02.664Z,23.40
2023-05-09T13:00:42.549Z,24.10
2023-05-09T13:03:42.534Z,23.40
2023-05-09T13:06:14.231Z,22.10
2023-05-09T13:08:41.753Z,22.40
2023-05-09T13:11:17.258Z,22.50
2023-05-09T13:13:45.001Z,23.90
2023-05-09T13:16:14.064Z,23.60
2023-05-09T13:18:42.916Z,22.40
2023-05-09T13:21:09.913Z,21.60
2023-05-09T13:23:36.958Z,22.00
2023-05-09T13:26:04.383Z,22.30
2023-05-09T13:28:31.690Z,22.20
2023-05-09T13:30:59.278Z,21.90
2023-05-09T13:33:26.928Z,22.20
2023-05-09T13:35:54.260Z,22.00
2023-05-09T13:38:21.350Z,22.00
2023-05-09T13:40:48.459Z,21.40
2023-05-09T13:43:15.516Z,21.40
2023-05-09T13:45:42.600Z,21.60
2023-05-09T13:48:09.842Z,21.80
2023-05-09T13:50:36.937Z,22.20
2023-05-09T13:53:04.215Z,22.40
2023-05-09T13:55:31.478Z,22.10
2023-05-09T13:57:58.566Z,22.20
2023-05-09T14:00:26.782Z,22.30
2023-05-09T14:02:54.229Z,22.40
2023-05-09T14:05:21.457Z,22.40
2023-05-09T14:07:48.581Z,21.90
2023-05-09T14:10:16.018Z,21.50
2023-05-09T14:12:44.658Z,21.30
2023-05-09T14:15:12.142Z,21.20
2023-05-09T14:17:40.163Z,21.20
2023-05-09T14:20:08.290Z,21.10
2023-05-09T14:22:35.542Z,21.00
2023-05-09T14:25:02.924Z,20.90
2023-05-09T14:27:30.154Z,20.90
2023-05-09T14:29:57.574Z,20.60
2023-05-09T14:32:25.464Z,20.50
2023-05-09T14:34:52.508Z,20.40
2023-05-09T14:37:19.832Z,20.40
2023-05-09T14:39:46.939Z,20.30
2023-05-09T14:42:14.355Z,20.20
2023-05-09T14:44:42.099Z,20.00
2023-05-09T14:47:10.111Z,19.80
2023-05-09T14:49:39.854Z,19.60
2023-05-09T14:52:07.068Z,19.50
2023-05-09T14:54:34.903Z,19.40
2023-05-09T14:57:04.648Z,19.30
2023-05-09T14:59:31.791Z,19.20
2023-05-09T15:01:58.942Z,18.90
2023-05-09T15:04:31.040Z,18.60
2023-05-09T15:06:59.889Z,18.40
2023-05-09T15:09:27.138Z,18.30
2023-05-09T15:11:55.219Z,18.20
2023-05-09T15:14:22.411Z,18.20
2023-05-09T15:16:52.341Z,18.10
2023-05-09T15:19:19.695Z,17.90
2023-05-09T15:21:46.941Z,17.90
2023-05-09T15:24:14.060Z,17.80
2023-05-09T15:26:41.161Z,17.80
2023-05-09T15:29:08.263Z,17.80
2023-05-09T15:31:36.371Z,17.90
2023-05-09T15:34:03.675Z,17.60
2023-05-09T15:36:32.300Z,17.60
2023-05-09T15:38:59.617Z,17.40
2023-05-09T15:41:27.357Z,17.30
2023-05-09T15:43:54.464Z,17.20
2023-05-09T15:46:21.974Z,17.20
2023-05-09T15:48:49.237Z,17.30
2023-05-09T15:51:16.568Z,17.10
2023-05-09T15:53:43.695Z,16.90
2023-05-09T15:56:11.283Z,16.80
2023-05-09T15:58:39.131Z,16.60
2023-05-09T16:01:08.044Z,16.50
2023-05-09T16:03:35.794Z,16.50
2023-05-09T16:06:03.427Z,16.40
2023-05-09T16:08:30.534Z,16.40
2023-05-09T16:11:00.884Z,16.40
2023-05-09T16:13:28.362Z,16.40
2023-05-09T16:15:55.733Z,16.40
2023-05-09T16:18:22.894Z,16.50
2023-05-09T16:20:49.965Z,16.40
2023-05-09T16:23:17.599Z,16.40
2023-05-09T16:25:45.119Z,16.40
2023-05-09T16:28:12.234Z,16.20
2023-05-09T16:30:39.334Z,16.20
2023-05-09T16:33:06.560Z,16.10
2023-05-09T16:35:34.064Z,16.00
2023-05-09T16:38:01.142Z,15.90
2023-05-09T16:40:28.634Z,15.80
2023-05-09T16:42:55.929Z,15.80
2023-05-09T16:45:23.019Z,15.80
2023-05-09T16:47:51.221Z,15.60
2023-05-09T16:50:18.513Z,15.60
2023-05-09T16:52:45.862Z,15.50
2023-05-09T16:55:12.932Z,15.40
2023-05-09T16:57:40.095Z,15.40
2023-05-09T17:00:09.865Z,15.40
2023-05-09T17:02:37.310Z,15.40
2023-05-09T17:05:05.542Z,15.50
2023-05-09T17:07:32.720Z,15.40
2023-05-09T17:09:59.850Z,15.20
2023-05-09T17:12:27.764Z,15.40
2023-05-09T17:14:54.901Z,15.20
2023-05-09T17:17:21.963Z,15.20
2023-05-09T17:19:49.081Z,15.20
2023-05-09T17:22:16.335Z,15.20
2023-05-09T17:24:43.714Z,15.20
2023-05-09T17:27:11.612Z,15.00
2023-05-09T17:29:38.757Z,14.90
2023-05-09T17:32:06.873Z,14.90
2023-05-09T17:34:34.151Z,15.00
2023-05-09T17:37:02.446Z,15.00
2023-05-09T17:39:29.639Z,15.00
2023-05-09T17:41:56.996Z,15.10
2023-05-09T17:44:24.222Z,15.00
2023-05-09T17:46:51.440Z,15.00
2023-05-09T17:49:18.549Z,14.80
2023-05-09T17:51:45.838Z,14.90
2023-05-09T17:54:13.083Z,14.90
2023-05-09T17:56:40.276Z,14.70
2023-05-09T17:59:08.013Z,14.80
2023-05-09T18:01:35.347Z,14.70
2023-05-09T18:04:03.010Z,14.70
2023-05-09T18:06:30.124Z,14.80
2023-05-09T18:08:57.212Z,14.80
2023-05-09T18:11:24.705Z,14.80
2023-05-09T18:13:51.746Z,14.80
2023-05-09T18:16:18.944Z,14.70
2023-05-09T18:18:46.096Z,14.70
2023-05-09T18:21:13.602Z,14.70
2023-05-09T18:23:41.457Z,14.70
2023-05-09T18:26:08.693Z,14.70
2023-05-09T18:28:41.861Z,14.70
2023-05-09T18:31:11.839Z,14.60
2023-05-09T18:33:39.798Z,14.70
2023-05-09T18:36:09.540Z,14.60
2023-05-09T18:38:41.199Z,14.70
2023-05-09T18:41:09.481Z,14.70
2023-05-09T18:43:38.796Z,14.70
2023-05-09T18:46:06.223Z,14.80
2023-05-09T18:48:33.616Z,14.80
2023-05-09T18:51:00.766Z,14.70
2023-05-09T18:53:29.013Z,14.70
2023-05-09T18:55:56.966Z,14.70
2023-05-09T18:58:24.835Z,14.60
2023-05-09T19:00:53.144Z,14.70
2023-05-09T19:03:20.908Z,14.70
2023-05-09T19:05:48.082Z,14.70
2023-05-09T19:08:15.744Z,14.60
2023-05-09T19:10:43.526Z,14.60
2023-05-09T19:13:10.855Z,14.60
2023-05-09T19:15:38.586Z,14.60
2023-05-09T19:18:05.697Z,14.60
2023-05-09T19:20:33.247Z,14.60
2023-05-09T19:23:01.188Z,14.50
2023-05-09T19:25:30.477Z,14.60
2023-05-09T19:27:57.537Z,14.60
2023-05-09T19:30:24.636Z,14.60
2023-05-09T19:32:52.811Z,14.60
2023-05-09T19:35:20.667Z,14.60
2023-05-09T19:37:47.798Z,14.50
2023-05-09T19:40:15.228Z,14.50
2023-05-09T19:42:42.436Z,14.50
2023-05-09T19:45:10.286Z,14.50
2023-05-09T19:47:37.615Z,14.40
2023-05-09T19:50:05.788Z,14.40
2023-05-09T19:52:32.865Z,14.40
2023-05-09T19:54:59.986Z,14.40
2023-05-09T19:57:27.034Z,14.30
2023-05-09T19:59:55.296Z,14.40
2023-05-09T20:02:22.573Z,14.40
2023-05-09T20:04:50.227Z,14.40
2023-05-09T20:07:17.921Z,14.40
2023-05-09T20:09:45.148Z,14.30
2023-05-09T20:12:13.294Z,14.20
2023-05-09T20:14:40.816Z,14.30
2023-05-09T20:17:07.907Z,14.30
2023-05-09T20:19:34.923Z,14.30
2023-05-09T20:22:02.511Z,14.20
2023-05-09T20:24:31.425Z,14.30
2023-05-09T20:26:58.466Z,14.30
2023-05-09T20:29:26.236Z,14.20
2023-05-09T20:31:53.275Z,14.20
2023-05-09T20:34:21.479Z,14.20
2023-05-09T20:36:52.428Z,14.20
2023-05-09T20:39:21.141Z,14.20
2023-05-09T20:41:49.145Z,14.30
2023-05-09T20:44:17.822Z,14.20
2023-05-09T20:46:45.681Z,14.10
2023-05-09T20:49:12.777Z,14.10
2023-05-09T20:51:40.087Z,14.10
2023-05-09T20:54:07.423Z,14.20
2023-05-09T20:56:35.565Z,14.20
2023-05-09T20:59:04.306Z,14.30
2023-05-09T21:01:34.317Z,14.20
2023-05-09T21:04:01.514Z,14.20
2023-05-09T21:06:28.623Z,14.20
2023-05-09T21:08:55.846Z,14.20
2023-05-09T21:11:22.853Z,14.20
2023-05-09T21:13:50.746Z,14.30
2023-05-09T21:16:17.741Z,14.20
2023-05-09T21:18:44.976Z,14.20
2023-05-09T21:21:11.976Z,14.20
2023-05-09T21:23:39.125Z,14.20
2023-05-09T21:26:06.210Z,14.20
2023-05-09T21:28:33.616Z,14.10
2023-05-09T21:31:03.285Z,14.20
2023-05-09T21:33:30.906Z,14.20
2023-05-09T21:35:59.244Z,14.20
2023-05-09T21:38:26.462Z,14.10
2023-05-09T21:40:53.557Z,14.10
2023-05-09T21:43:20.879Z,14.10
2023-05-09T21:45:47.930Z,14.10
2023-05-09T21:48:15.145Z,14.10
2023-05-09T21:50:46.199Z,14.10
2023-05-09T21:53:14.281Z,14.10
2023-05-09T21:55:41.545Z,14.10
2023-05-09T21:58:08.613Z,14.10
2023-05-09T22:00:49.463Z,14.10
2023-05-09T22:03:16.716Z,14.00
2023-05-09T22:05:43.922Z,13.90
2023-05-09T22:08:11.152Z,13.90
2023-05-09T22:10:38.420Z,13.70
2023-05-09T22:13:05.521Z,13.60
2023-05-09T22:15:32.580Z,13.60
2023-05-09T22:20:27.427Z,13.60
2023-05-09T22:22:54.523Z,13.60
2023-05-09T22:25:21.572Z,13.60
2023-05-09T22:30:16.886Z,13.60
2023-05-09T22:32:44.386Z,13.60
2023-05-09T22:35:11.406Z,13.50
2023-05-09T22:37:38.498Z,13.50
2023-05-09T22:40:06.577Z,13.50
2023-05-09T22:42:34.849Z,13.60
2023-05-09T22:45:02.345Z,13.50
2023-05-09T22:47:29.640Z,13.50
2023-05-09T22:54:52.330Z,13.60
2023-05-09T22:57:20.590Z,13.60
2023-05-09T22:59:47.645Z,13.50
2023-05-09T23:02:14.943Z,13.50
2023-05-09T23:04:41.990Z,13.50
2023-05-09T23:07:09.245Z,13.50
2023-05-09T23:09:36.309Z,13.50
2023-05-09T23:12:03.986Z,13.40
2023-05-09T23:14:31.533Z,13.40
2023-05-09T23:16:58.641Z,13.40
2023-05-09T23:19:25.860Z,13.40
2023-05-09T23:21:53.441Z,13.30
2023-05-09T23:24:20.508Z,13.30
2023-05-09T23:26:47.584Z,13.30
2023-05-09T23:29:15.121Z,13.20
2023-05-09T23:31:42.430Z,13.30
2023-05-09T23:34:09.661Z,13.30
2023-05-09T23:36:36.922Z,13.30
2023-05-09T23:39:04.151Z,13.30
2023-05-09T23:41:31.340Z,13.30
2023-05-09T23:43:59.487Z,13.20
2023-05-09T23:46:27.297Z,13.30
2023-05-09T23:48:54.342Z,13.20
2023-05-09T23:51:22.703Z,13.20
2023-05-09T23:53:49.923Z,13.20
2023-05-09T23:56:17.042Z,13.30
2023-05-09T23:58:44.139Z,13.20
